Time;durP1;ratioP1;P1;durP2;ratioP2;P2;SDS_P1;SDS_P2;PMS_P1;PMS_P2;Temp;Humidity;BMP_temperature;BMP_pressure;BME280_temperature;BME280_humidity;BME280_pressure;Samples;Min_cycle;Max_cycle;Signal;HPM_P1;HPM_P2
2021/04/04 00:01:50;;;;;;;14.43;9.13;;;;;;;3.23;100.00;94527.13;10484799;28;20271;-74
2021/04/04 00:06:51;;;;;;;15.18;9.45;;;;;;;3.01;100.00;94526.13;10483695;28;20113;-74
2021/04/04 00:11:51;;;;;;;16.43;9.47;;;;;;;2.78;100.00;94517.09;10484100;28;20043;-74
2021/04/04 00:16:51;;;;;;;15.80;8.73;;;;;;;2.58;100.00;94521.91;10484220;28;20362;-74
2021/04/04 00:21:52;;;;;;;14.35;7.97;;;;;;;2.39;100.00;94535.28;10483749;28;20412;-74
2021/04/04 00:26:52;;;;;;;16.07;8.50;;;;;;;2.40;100.00;94547.50;10483948;28;20058;-74
2021/04/04 00:31:53;;;;;;;14.25;8.23;;;;;;;2.47;100.00;94550.03;10484507;28;20326;-74
2021/04/04 00:36:53;;;;;;;13.77;7.45;;;;;;;2.50;100.00;94547.75;10483785;28;20070;-74
2021/04/04 00:41:54;;;;;;;15.00;6.37;;;;;;;2.59;100.00;94550.88;10483671;28;20086;-74
2021/04/04 00:46:54;;;;;;;14.07;7.27;;;;;;;2.36;100.00;94546.34;10483617;28;20407;-74
2021/04/04 00:51:54;;;;;;;13.70;7.17;;;;;;;2.51;100.00;94559.97;10483213;28;20286;-74
2021/04/04 00:56:55;;;;;;;14.02;6.38;;;;;;;2.39;100.00;94561.78;10482936;28;20024;-74
2021/04/04 01:01:55;;;;;;;10.23;5.63;;;;;;;2.37;100.00;94559.38;10483864;28;20036;-74
2021/04/04 01:06:56;;;;;;;11.23;6.33;;;;;;;2.48;100.00;94568.38;10483183;28;20055;-74
2021/04/04 01:12:15;;;;;;;12.20;6.15;;;;;;;2.40;100.00;94566.06;10492603;28;20324;-74
2021/04/04 01:17:20;;;;;;;13.10;7.05;;;;;;;2.29;100.00;94564.16;10486596;28;20029;-74
2021/04/04 01:22:27;;;;;;;11.80;7.05;;;;;;;2.25;100.00;94569.13;10486647;28;20035;-74
2021/04/04 01:27:45;;;;;;;14.07;7.40;;;;;;;2.28;100.00;94563.38;10485348;28;20036;-74
2021/04/04 01:32:48;;;;;;;13.07;7.57;;;;;;;2.27;100.00;94559.09;10486124;28;20066;-74
2021/04/04 01:37:52;;;;;;;12.10;7.40;;;;;;;2.48;100.00;94562.28;10486263;28;20036;-74
2021/04/04 01:42:55;;;;;;;12.82;6.68;;;;;;;2.30;100.00;94558.66;10485793;28;20029;-74
2021/04/04 01:47:56;;;;;;;11.43;6.82;;;;;;;2.50;100.00;94555.72;10485837;28;20032;-74
2021/04/04 01:53:00;;;;;;;12.05;6.28;;;;;;;2.34;100.00;94551.84;10453663;28;20102;-73
2021/04/04 01:58:01;;;;;;;9.82;5.93;;;;;;;2.30;100.00;94550.69;10443337;28;20124;-74
2021/04/04 02:03:02;;;;;;;12.30;6.95;;;;;;;2.19;100.00;94552.28;10443818;28;20037;-73
2021/04/04 02:08:07;;;;;;;15.73;8.52;;;;;;;2.11;100.00;94547.28;10449819;28;20048;-73
2021/04/04 02:13:09;;;;;;;14.05;8.02;;;;;;;2.13;100.00;94547.06;10449604;28;20041;-73
2021/04/04 02:18:10;;;;;;;13.00;7.35;;;;;;;2.24;100.00;94540.97;10447284;28;20033;-73
2021/04/04 02:23:11;;;;;;;16.20;8.50;;;;;;;2.26;100.00;94541.56;10447499;28;20704;-74
2021/04/04 02:28:12;;;;;;;17.13;9.18;;;;;;;2.33;100.00;94541.47;10447367;28;20025;-74
2021/04/04 02:33:23;;;;;;;18.48;9.45;;;;;;;2.12;100.00;94548.06;10447168;28;20116;-74
2021/04/04 02:38:33;;;;;;;18.30;10.80;;;;;;;2.04;100.00;94544.72;10446700;28;20075;-74
2021/04/04 02:43:36;;;;;;;20.77;10.82;;;;;;;2.16;100.00;94542.13;10446293;28;20029;-73
2021/04/04 02:48:47;;;;;;;22.15;11.48;;;;;;;2.27;100.00;94535.22;10445722;28;20037;-74
2021/04/04 02:53:50;;;;;;;23.00;12.25;;;;;;;2.55;100.00;94539.94;10483786;28;20510;-74
2021/04/04 02:58:55;;;;;;;23.10;12.73;;;;;;;2.21;100.00;94533.47;10487339;28;20039;-74
2021/04/04 03:03:56;;;;;;;24.50;13.70;;;;;;;2.15;100.00;94531.72;10489720;28;20056;-74
2021/04/04 03:08:57;;;;;;;26.33;13.38;;;;;;;2.00;100.00;94530.28;10486174;28;20140;-73
2021/04/04 03:13:58;;;;;;;24.50;12.30;;;;;;;2.15;100.00;94527.25;10485236;28;20102;-74
2021/04/04 03:19:00;;;;;;;30.95;14.32;;;;;;;2.44;100.00;94535.38;10486443;28;20039;-73
2021/04/04 03:24:01;;;;;;;29.75;15.63;;;;;;;2.31;100.00;94524.97;10485661;28;20144;-73
2021/04/04 03:29:02;;;;;;;26.90;14.85;;;;;;;2.50;100.00;94528.38;10484749;28;20111;-73
2021/04/04 03:34:03;;;;;;;32.70;15.15;;;;;;;2.44;100.00;94516.00;10484400;28;20029;-73
2021/04/04 03:39:04;;;;;;;32.00;15.77;;;;;;;2.15;100.00;94529.91;10485806;28;20032;-73
2021/04/04 03:44:07;;;;;;;32.83;15.43;;;;;;;2.26;100.00;94523.03;10461809;28;20028;-73
2021/04/04 03:49:08;;;;;;;37.83;18.55;;;;;;;2.37;100.00;94529.38;10443948;28;20040;-74
2021/04/04 03:54:13;;;;;;;32.17;17.00;;;;;;;2.62;100.00;94528.38;10483677;28;20028;-73
2021/04/04 03:59:16;;;;;;;35.88;16.67;;;;;;;2.86;100.00;94530.03;10483052;28;20571;-74
2021/04/04 04:04:19;;;;;;;39.67;19.90;;;;;;;2.66;100.00;94529.56;10471156;28;20032;-73
2021/04/04 04:09:20;;;;;;;37.13;18.23;;;;;;;2.53;100.00;94520.75;10443550;28;20063;-73
2021/04/04 04:14:22;;;;;;;34.70;17.85;;;;;;;2.54;100.00;94521.56;10443238;28;20717;-74
2021/04/04 04:19:23;;;;;;;39.67;19.13;;;;;;;2.57;100.00;94518.47;10443367;28;20128;-73
2021/04/04 04:24:24;;;;;;;36.35;19.40;;;;;;;2.72;100.00;94510.88;10442738;28;20032;-73
2021/04/04 04:29:26;;;;;;;35.25;17.95;;;;;;;2.68;100.00;94516.84;10442693;28;20033;-73
2021/04/04 04:34:29;;;;;;;34.08;16.65;;;;;;;2.90;100.00;94514.44;10443385;28;20479;-73
2021/04/04 04:39:29;;;;;;;39.63;18.42;;;;;;;3.05;100.00;94524.63;10442994;28;20025;-73
2021/04/04 04:44:30;;;;;;;38.75;18.42;;;;;;;3.10;100.00;94511.47;10442705;28;20029;-73
2021/04/04 04:49:31;;;;;;;37.85;18.33;;;;;;;2.86;100.00;94521.25;10444944;28;20399;-73
2021/04/04 04:54:32;;;;;;;42.55;19.83;;;;;;;2.87;100.00;94520.22;10483763;28;20036;-73
2021/04/04 04:59:34;;;;;;;42.20;20.02;;;;;;;2.98;100.00;94515.97;10483803;28;20414;-73
2021/04/04 05:04:35;;;;;;;40.53;19.50;;;;;;;3.11;100.00;94529.00;10483364;28;20039;-73
2021/04/04 05:09:35;;;;;;;38.38;21.45;;;;;;;3.15;100.00;94530.16;10483741;28;20067;-74
2021/04/04 05:14:37;;;;;;;40.45;22.00;;;;;;;3.36;100.00;94539.41;10482287;28;20037;-74
2021/04/04 05:19:38;;;;;;;46.63;22.48;;;;;;;3.47;100.00;94537.75;10483298;28;20036;-74
2021/04/04 05:24:39;;;;;;;44.55;23.13;;;;;;;3.53;100.00;94541.31;10483340;28;20025;-74
2021/04/04 05:29:40;;;;;;;42.78;22.10;;;;;;;3.63;100.00;94549.53;10482988;28;20036;-74
2021/04/04 05:34:40;;;;;;;40.17;20.43;;;;;;;3.74;100.00;94555.84;10481070;28;20034;-74
2021/04/04 05:39:41;;;;;;;39.05;19.48;;;;;;;3.83;100.00;94550.97;10486325;28;20282;-74
2021/04/04 05:44:53;;;;;;;40.33;17.67;;;;;;;3.74;100.00;94542.53;10481591;28;20601;-74
2021/04/04 05:50:04;;;;;;;34.67;17.98;;;;;;;3.75;100.00;94550.31;10491032;28;20029;-74
2021/04/04 05:55:38;;;;;;;36.85;16.73;;;;;;;3.74;100.00;94548.69;10489924;28;20029;-75
2021/04/04 06:00:45;;;;;;;34.90;18.00;;;;;;;3.75;100.00;94549.47;10489829;28;20475;-74
2021/04/04 06:06:01;;;;;;;32.13;17.53;;;;;;;3.65;100.00;94555.41;10489577;28;20059;-74
2021/04/04 06:11:28;;;;;;;29.08;15.70;;;;;;;3.48;100.00;94555.31;10490101;28;20103;-74
2021/04/04 06:16:50;;;;;;;33.72;17.48;;;;;;;3.54;100.00;94554.38;10476470;28;20495;-76
2021/04/04 06:21:50;;;;;;;37.67;17.98;;;;;;;3.29;100.00;94551.97;10465261;28;20069;-76
2021/04/04 06:26:59;;;;;;;39.90;19.77;;;;;;;2.79;100.00;94558.53;10468725;28;20036;-76
2021/04/04 06:32:20;;;;;;;43.83;19.27;;;;;;;2.72;100.00;94574.56;10467473;28;20043;-76
2021/04/04 06:37:34;;;;;;;37.95;18.90;;;;;;;2.79;100.00;94569.16;10463620;28;20036;-74
2021/04/04 06:42:52;;;;;;;40.33;20.05;;;;;;;2.61;100.00;94579.81;10464580;28;20029;-74
2021/04/04 06:48:19;;;;;;;43.15;20.45;;;;;;;2.63;100.00;94556.53;10452492;28;20036;-74
2021/04/04 06:53:38;;;;;;;41.58;20.02;;;;;;;2.56;100.00;94551.34;10452336;28;20400;-73
2021/04/04 06:58:49;;;;;;;42.33;20.33;;;;;;;2.55;100.00;94576.25;10465487;28;20476;-74
2021/04/04 07:03:58;;;;;;;42.65;20.55;;;;;;;2.51;100.00;94583.03;10488556;28;20110;-73
2021/04/04 07:09:10;;;;;;;40.70;20.83;;;;;;;2.56;100.00;94575.22;10487517;28;20056;-74
2021/04/04 07:14:48;;;;;;;38.53;21.23;;;;;;;2.67;100.00;94579.72;10487722;28;20088;-73
2021/04/04 07:20:17;;;;;;;43.72;21.67;;;;;;;2.66;100.00;94575.47;10485693;28;20401;-73
2021/04/04 07:25:36;;;;;;;39.38;20.77;;;;;;;2.80;100.00;94562.78;10486777;28;20028;-73
2021/04/04 07:30:39;;;;;;;40.08;20.77;;;;;;;2.96;100.00;94571.94;10453341;28;20103;-74
2021/04/04 07:36:18;;;;;;;43.45;20.90;;;;;;;3.51;100.00;94575.28;10444962;28;20489;-73
2021/04/04 07:41:42;;;;;;;36.45;19.25;;;;;;;4.00;100.00;94562.47;10448971;28;20845;-74
2021/04/04 07:46:57;;;;;;;31.48;18.02;;;;;;;4.43;100.00;94563.00;10486377;28;20414;-72
2021/04/04 07:52:00;;;;;;;32.35;18.00;;;;;;;4.23;100.00;94550.16;10484855;28;20492;-72
2021/04/04 07:57:16;;;;;;;36.60;19.08;;;;;;;4.20;100.00;94556.75;10485475;28;20166;-72
2021/04/04 08:02:21;;;;;;;32.38;18.52;;;;;;;4.28;100.00;94552.88;10485023;28;20032;-72
2021/04/04 08:07:29;;;;;;;32.47;17.75;;;;;;;4.14;100.00;94559.56;10484068;28;20048;-72
2021/04/04 08:12:30;;;;;;;;;;;;;;;4.39;100.00;94553.91;10484676;28;20040;-72
2021/04/04 08:17:30;;;;;;;32.60;17.38;;;;;;;4.38;100.00;94544.28;10485219;28;19912;-73
2021/04/04 08:22:40;;;;;;;34.25;17.90;;;;;;;4.48;100.00;94546.31;10450743;28;20029;-73
2021/04/04 08:27:50;;;;;;;33.75;17.55;;;;;;;4.35;100.00;94552.75;10443631;28;20056;-73
2021/04/04 08:32:54;;;;;;;33.45;18.20;;;;;;;4.26;100.00;94549.69;10442889;28;20415;-73
2021/04/04 08:37:59;;;;;;;34.03;18.60;;;;;;;4.05;100.00;94551.16;10443383;28;20037;-74
2021/04/04 08:43:00;;;;;;;33.10;18.45;;;;;;;4.10;100.00;94554.72;10442011;28;20108;-74
2021/04/04 08:48:02;;;;;;;33.00;18.05;;;;;;;4.18;100.00;94548.19;10442315;28;20092;-73
2021/04/04 08:53:14;;;;;;;32.08;16.42;;;;;;;4.19;100.00;94549.81;10444660;28;20864;-74
2021/04/04 08:58:19;;;;;;;30.38;16.08;;;;;;;3.98;100.00;94551.28;10442635;28;20029;-74
2021/04/04 09:03:22;;;;;;;37.45;17.13;;;;;;;3.84;100.00;94542.75;10460805;28;20039;-74
2021/04/04 09:08:23;;;;;;;27.48;16.23;;;;;;;3.75;100.00;94538.84;10484046;28;20098;-74
2021/04/04 09:13:24;;;;;;;34.15;17.52;;;;;;;3.80;100.00;94538.97;10486675;28;20123;-74
2021/04/04 09:18:26;;;;;;;35.13;17.52;;;;;;;3.81;100.00;94534.44;10491956;28;20468;-76
2021/04/04 09:23:27;;;;;;;30.95;17.50;;;;;;;4.04;100.00;94522.94;10492740;28;20028;-74
2021/04/04 09:28:29;;;;;;;28.05;15.70;;;;;;;4.05;100.00;94527.22;10491088;28;20024;-74
2021/04/04 09:33:35;;;;;;;32.80;18.05;;;;;;;4.01;100.00;94531.38;10490773;28;20036;-74
2021/04/04 09:38:41;;;;;;;27.20;15.65;;;;;;;3.78;100.00;94526.94;10491246;28;20036;-74
2021/04/04 09:44:05;;;;;;;33.67;18.25;;;;;;;3.59;100.00;94530.56;10490427;28;20063;-73
2021/04/04 09:49:06;;;;;;;31.80;18.08;;;;;;;3.53;100.00;94536.00;10490546;28;20060;-74
2021/04/04 09:54:06;;;;;;;41.05;20.60;;;;;;;3.33;100.00;94539.03;10489910;28;20032;-73
2021/04/04 09:59:06;;;;;;;41.80;19.75;;;;;;;3.30;100.00;94548.28;10490524;28;20036;-74
2021/04/04 10:04:08;;;;;;;37.67;19.63;;;;;;;3.25;100.00;94554.28;10482445;28;20025;-73
2021/04/04 10:09:12;;;;;;;35.15;17.63;;;;;;;3.04;100.00;94544.22;10448564;28;20303;-74
2021/04/04 10:14:19;;;;;;;44.33;21.13;;;;;;;3.10;100.00;94550.47;10448872;28;20021;-73
2021/04/04 10:19:20;;;;;;;32.63;18.08;;;;;;;2.98;100.00;94547.81;10447973;28;20025;-73
2021/04/04 10:24:25;;;;;;;39.42;19.40;;;;;;;3.44;100.00;94548.84;10447141;28;20123;-74
2021/04/04 10:29:26;;;;;;;28.58;15.55;;;;;;;3.92;100.00;94552.22;10464063;28;20163;-74
2021/04/04 10:34:44;;;;;;;39.47;18.48;;;;;;;4.11;100.00;94545.66;10468882;28;20031;-74
2021/04/04 10:39:53;;;;;;;35.08;18.17;;;;;;;4.30;100.00;94547.34;10481167;28;20021;-73
2021/04/04 10:45:09;;;;;;;33.75;18.80;;;;;;;4.40;100.00;94536.88;10489114;28;20044;-73
2021/04/04 10:50:12;;;;;;;32.15;16.90;;;;;;;4.34;100.00;94535.16;10487104;28;20209;-73
2021/04/04 10:55:13;;;;;;;28.15;15.02;;;;;;;4.28;100.00;94534.28;10488538;28;20024;-73
2021/04/04 11:00:15;;;;;;;29.08;14.43;;;;;;;4.09;100.00;94537.13;10486555;28;20107;-73
2021/04/04 11:05:17;;;;;;;29.17;16.60;;;;;;;3.96;100.00;94531.28;10486450;28;20058;-72
2021/04/04 11:10:17;;;;;;;31.77;16.27;;;;;;;3.84;100.00;94537.44;10458086;28;20648;-72
2021/04/04 11:15:19;;;;;;;32.10;17.03;;;;;;;3.21;100.00;94545.16;10446370;28;20024;-72
2021/04/04 11:20:21;;;;;;;29.27;17.13;;;;;;;3.32;100.00;94545.38;10457738;28;20278;-73
2021/04/04 11:25:29;;;;;;;27.98;16.00;;;;;;;3.67;100.00;94550.66;10485336;28;20549;-74
2021/04/04 11:30:30;;;;;;;24.13;13.30;;;;;;;3.74;100.00;94542.53;10487569;28;20273;-73
2021/04/04 11:36:09;;;;;;;23.13;13.45;;;;;;;3.70;100.00;94541.41;10485950;28;20257;-73
2021/04/04 11:41:12;;;;;;;24.17;12.25;;;;;;;3.52;100.00;94527.22;10485252;28;20154;-74
2021/04/04 11:46:41;;;;;;;21.48;11.30;;;;;;;2.87;100.00;94523.69;10486002;28;20027;-74
2021/04/04 11:51:41;;;;;;;21.25;11.93;;;;;;;2.64;100.00;94519.16;10468902;28;20025;-73
2021/04/04 11:56:48;;;;;;;24.15;13.63;;;;;;;2.51;100.00;94509.59;10485339;28;20032;-74
2021/04/04 12:01:49;;;;;;;33.75;16.15;;;;;;;2.81;100.00;94507.88;10485270;28;20048;-74
2021/04/04 12:07:10;;;;;;;31.45;16.45;;;;;;;3.23;100.00;94499.78;10485721;28;20600;-74
2021/04/04 12:12:12;;;;;;;31.95;17.98;;;;;;;3.64;100.00;94495.31;10485381;28;20133;-74
2021/04/04 12:17:13;;;;;;;31.23;15.93;;;;;;;3.69;100.00;94502.59;10446791;28;20036;-73
2021/04/04 12:22:17;;;;;;;34.70;18.95;;;;;;;3.67;100.00;94470.13;10443886;28;20481;-73
2021/04/04 12:27:25;;;;;;;25.67;15.52;;;;;;;3.44;100.00;94457.72;10443583;28;20804;-73
2021/04/04 12:32:27;;;;;;;30.50;17.95;;;;;;;3.07;100.00;94464.16;10443137;28;20021;-73
2021/04/04 12:37:30;;;;;;;37.67;20.80;;;;;;;2.63;100.00;94461.03;10442699;28;20040;-74
2021/04/04 12:42:34;;;;;;;36.50;18.42;;;;;;;2.41;100.00;94450.97;10443481;28;20029;-74
2021/04/04 12:47:34;;;;;;;37.03;19.10;;;;;;;2.40;100.00;94433.47;10442549;28;20033;-76
2021/04/04 12:52:47;;;;;;;31.02;17.30;;;;;;;2.36;100.00;94448.22;10470171;28;20025;-76
2021/04/04 12:58:03;;;;;;;36.03;17.00;;;;;;;2.24;100.00;94448.19;10498141;28;20060;-76
2021/04/04 13:03:05;;;;;;;35.65;17.48;;;;;;;2.15;100.00;94450.34;10457430;28;20036;-75
2021/04/04 13:08:10;;;;;;;33.95;19.00;;;;;;;1.97;100.00;94450.44;10440734;28;20057;-74
2021/04/04 13:13:15;;;;;;;42.03;19.00;;;;;;;1.90;100.00;94452.34;10440961;28;20032;-75
2021/04/04 13:18:24;;;;;;;36.22;19.35;;;;;;;1.84;100.00;94468.13;10472965;28;20025;-75
2021/04/04 13:23:25;;;;;;;31.98;18.35;;;;;;;1.78;100.00;94466.38;10449263;28;20456;-75
2021/04/04 13:28:34;;;;;;;34.15;17.27;;;;;;;1.74;100.00;94473.16;10442508;28;20013;-75
2021/04/04 13:33:35;;;;;;;39.17;19.77;;;;;;;1.82;100.00;94459.59;10462625;28;20056;-76
2021/04/04 13:38:35;;;;;;;31.38;16.67;;;;;;;2.12;100.00;94436.75;10482979;28;20116;-75
2021/04/04 13:43:48;;;;;;;31.52;15.90;;;;;;;1.99;100.00;94443.84;10476909;28;20032;-75
2021/04/04 13:48:56;;;;;;;33.15;18.15;;;;;;;2.20;100.00;94428.47;10440532;28;20792;-76
2021/04/04 13:54:09;;;;;;;31.83;17.70;;;;;;;2.11;100.00;94424.50;10480620;28;20056;-76
2021/04/04 13:59:12;;;;;;;32.40;18.30;;;;;;;2.06;100.00;94409.31;10483747;28;20445;-75
2021/04/04 14:04:26;;;;;;;35.75;18.77;;;;;;;2.04;100.00;94411.38;10491027;28;20075;-75
2021/04/04 14:09:35;;;;;;;33.50;18.20;;;;;;;2.08;100.00;94419.69;10490399;28;20780;-75
2021/04/04 14:14:38;;;;;;;36.00;19.52;;;;;;;1.96;100.00;94428.41;10490528;28;20487;-75
2021/04/04 14:19:38;;;;;;;35.15;19.00;;;;;;;1.96;100.00;94414.34;10490350;28;20024;-75
2021/04/04 14:24:39;;;;;;;36.65;17.80;;;;;;;2.00;100.00;94426.13;10451056;28;20029;-76
2021/04/04 14:29:39;;;;;;;32.38;16.85;;;;;;;1.93;100.00;94417.47;10447822;28;20029;-75
2021/04/04 14:34:39;;;;;;;35.77;19.13;;;;;;;1.87;100.00;94433.22;10447943;28;20037;-75
2021/04/04 14:39:40;;;;;;;39.03;19.57;;;;;;;1.79;100.00;94438.84;10452579;28;20089;-79
2021/04/04 14:44:40;;;;;;;37.45;19.67;;;;;;;1.79;100.00;94430.91;10466563;28;20135;-74
2021/04/04 14:49:41;;;;;;;41.33;20.00;;;;;;;1.78;100.00;94426.63;10467239;28;20021;-78
2021/04/04 14:54:42;;;;;;;41.50;21.50;;;;;;;1.78;100.00;94433.78;10465373;28;20024;-77
2021/04/04 14:59:43;;;;;;;42.70;22.52;;;;;;;1.84;100.00;94430.22;10466439;28;20028;-77
2021/04/04 15:04:43;;;;;;;41.93;20.80;;;;;;;1.87;100.00;94441.19;10478676;28;20479;-77
2021/04/04 15:09:44;;;;;;;48.17;23.40;;;;;;;1.95;100.00;94439.25;10487460;28;20390;-77
2021/04/04 15:14:44;;;;;;;40.73;21.20;;;;;;;1.97;100.00;94434.53;10488323;28;20104;-78
2021/04/04 15:19:44;;;;;;;43.97;23.58;;;;;;;2.01;100.00;94410.00;10472559;28;20464;-77
2021/04/04 15:24:45;;;;;;;46.07;21.80;;;;;;;1.98;100.00;94414.94;10446299;28;20028;-78
2021/04/04 15:29:45;;;;;;;45.90;21.83;;;;;;;1.98;100.00;94434.31;10458318;28;20028;-78
2021/04/04 15:34:45;;;;;;;39.23;19.73;;;;;;;2.02;100.00;94411.63;10484424;28;20499;-78
2021/04/04 15:39:46;;;;;;;37.30;19.93;;;;;;;2.14;100.00;94408.97;10446165;28;20025;-77
2021/04/04 15:44:47;;;;;;;38.20;19.60;;;;;;;1.98;100.00;94452.03;10445154;28;20108;-77
2021/04/04 15:49:47;;;;;;;41.42;19.58;;;;;;;1.94;100.00;94424.38;10461373;28;20178;-77
2021/04/04 15:54:48;;;;;;;34.17;17.33;;;;;;;2.09;100.00;94408.84;10477948;28;20132;-77
2021/04/04 15:59:48;;;;;;;37.67;17.73;;;;;;;1.99;100.00;94417.34;10444730;28;20083;-77
2021/04/04 16:04:48;;;;;;;29.77;16.40;;;;;;;1.90;100.00;94428.50;10449755;28;20819;-77
2021/04/04 16:09:49;;;;;;;33.53;15.57;;;;;;;1.86;100.00;94428.97;10486815;28;20083;-77
2021/04/04 16:14:50;;;;;;;33.63;18.05;;;;;;;1.86;100.00;94414.91;10485092;28;20044;-78
2021/04/04 16:19:51;;;;;;;38.10;18.67;;;;;;;1.80;100.00;94424.56;10484980;28;20024;-77
2021/04/04 16:24:51;;;;;;;40.10;18.60;;;;;;;1.86;100.00;94412.25;10457235;28;20036;-77
2021/04/04 16:29:52;;;;;;;37.37;19.53;;;;;;;2.14;100.00;94400.22;10443177;28;20111;-77
2021/04/04 16:34:52;;;;;;;34.15;17.98;;;;;;;2.08;100.00;94409.91;10445134;28;20487;-77
2021/04/04 16:39:52;;;;;;;37.20;18.37;;;;;;;1.92;100.00;94399.94;10485475;28;20035;-76
2021/04/04 16:44:53;;;;;;;46.60;21.67;;;;;;;1.76;100.00;94428.72;10468968;28;20286;-76
2021/04/04 16:49:53;;;;;;;52.58;25.33;;;;;;;1.65;100.00;94432.94;10445810;28;20025;-76
2021/04/04 16:54:54;;;;;;;45.03;23.13;;;;;;;1.70;100.00;94445.50;10461189;28;20040;-76
2021/04/04 16:59:54;;;;;;;48.93;23.97;;;;;;;1.72;100.00;94448.72;10484890;28;20214;-76
2021/04/04 17:04:54;;;;;;;47.93;24.37;;;;;;;1.73;100.00;94450.34;10483982;28;20383;-77
2021/04/04 17:09:55;;;;;;;54.83;27.90;;;;;;;1.54;100.00;94447.72;10483943;28;20282;-76
2021/04/04 17:14:55;;;;;;;50.00;25.70;;;;;;;1.34;100.00;94436.56;10484476;28;20475;-76
2021/04/04 17:19:55;;;;;;;47.30;24.20;;;;;;;1.26;100.00;94450.94;10483808;28;20029;-77
2021/04/04 17:24:56;;;;;;;44.17;22.60;;;;;;;1.11;100.00;94467.19;10484881;28;20381;-78
2021/04/04 17:29:56;;;;;;;39.60;21.60;;;;;;;0.98;100.00;94465.50;10484550;28;20454;-77
2021/04/04 17:34:57;;;;;;;41.03;19.63;;;;;;;0.91;100.00;94472.69;10486931;28;20129;-78
2021/04/04 17:39:57;;;;;;;34.63;17.90;;;;;;;0.90;100.00;94465.78;10492326;28;20036;-77
2021/04/04 17:44:57;;;;;;;32.97;16.83;;;;;;;0.81;100.00;94485.59;10491840;28;20115;-77
2021/04/04 17:49:59;;;;;;;31.23;17.50;;;;;;;0.70;100.00;94481.03;10490996;28;20032;-76
2021/04/04 17:55:00;;;;;;;31.98;17.02;;;;;;;0.62;100.00;94490.06;10490148;28;20057;-77
2021/04/04 18:00:00;;;;;;;32.80;16.85;;;;;;;0.50;100.00;94495.22;10491246;28;20036;-77
2021/04/04 18:05:10;;;;;;;35.80;19.10;;;;;;;0.28;100.00;94510.66;10489127;28;20028;-77
2021/04/04 18:15:30;;;;;;;34.17;17.30;;;;;;;0.08;100.00;94527.44;10449231;28;20140;-77
2021/04/04 18:20:31;;;;;;;31.85;16.30;;;;;;;-0.05;100.00;94530.19;10449284;28;20028;-79
2021/04/04 18:25:32;;;;;;;34.55;17.40;;;;;;;-0.09;100.00;94523.72;10449187;28;20404;-78
2021/04/04 18:30:32;;;;;;;31.80;16.77;;;;;;;-0.21;100.00;94537.59;10459972;28;20032;-78
2021/04/04 18:35:34;;;;;;;28.52;15.43;;;;;;;-0.29;100.00;94540.47;10489909;28;20290;-78
2021/04/04 18:40:35;;;;;;;37.60;17.85;;;;;;;-0.36;100.00;94547.59;10490897;28;20028;-80
2021/04/04 18:45:36;;;;;;;38.33;18.38;;;;;;;-0.48;100.00;94538.72;10490381;28;20131;-79
2021/04/04 18:50:39;;;;;;;28.05;16.23;;;;;;;-0.52;100.00;94562.91;10485344;28;20101;-79
2021/04/04 18:55:39;;;;;;;26.20;13.48;;;;;;;-0.55;100.00;94560.66;10490857;28;20033;-79
2021/04/04 19:00:41;;;;;;;27.50;13.33;;;;;;;-0.56;100.00;94559.06;10477471;28;20029;-79
2021/04/04 19:05:41;;;;;;;25.05;13.90;;;;;;;-0.50;100.00;94564.50;10449870;28;20390;-79
2021/04/04 19:10:46;;;;;;;29.10;14.13;;;;;;;-0.50;100.00;94564.50;10448778;28;20407;-79
2021/04/04 19:15:47;;;;;;;26.55;13.93;;;;;;;-0.43;100.00;94562.63;10461249;28;20017;-78
2021/04/04 19:20:47;;;;;;;25.70;12.47;;;;;;;-0.42;100.00;94561.63;10458573;28;20042;-78
2021/04/04 19:25:48;;;;;;;25.83;12.87;;;;;;;-0.30;100.00;94559.97;10456964;28;20317;-77
2021/04/04 19:30:49;;;;;;;24.45;14.30;;;;;;;-0.29;100.00;94566.88;10446259;28;20785;-76
2021/04/04 19:35:49;;;;;;;20.65;11.93;;;;;;;-0.27;100.00;94578.00;10445899;28;20036;-77
2021/04/04 19:40:50;;;;;;;24.23;12.13;;;;;;;-0.14;100.00;94576.34;10446828;28;20243;-77
2021/04/04 19:45:50;;;;;;;21.50;11.75;;;;;;;0.06;100.00;94573.63;10444436;28;20029;-77
2021/04/04 19:50:50;;;;;;;20.73;10.70;;;;;;;-0.04;100.00;94568.81;10444168;28;20025;-77
2021/04/04 19:55:51;;;;;;;19.77;11.40;;;;;;;-0.05;100.00;94573.25;10443902;28;20033;-77
2021/04/04 20:00:52;;;;;;;21.55;12.02;;;;;;;-0.07;100.00;94570.03;10443478;28;21138;-77
2021/04/04 20:05:55;;;;;;;24.60;13.73;;;;;;;-0.01;100.00;94553.31;10443690;28;20450;-77
2021/04/04 20:10:55;;;;;;;26.98;13.35;;;;;;;-0.07;100.00;94569.19;10444159;28;20059;-77
2021/04/04 20:15:56;;;;;;;26.90;12.93;;;;;;;-0.04;100.00;94571.44;10443220;28;20063;-77
2021/04/04 20:20:58;;;;;;;26.03;14.53;;;;;;;0.03;100.00;94568.75;10443160;28;20239;-77
2021/04/04 20:25:58;;;;;;;33.70;16.73;;;;;;;-0.01;100.00;94573.66;10443448;28;20271;-77
2021/04/04 20:30:59;;;;;;;36.75;15.93;;;;;;;0.01;100.00;94576.88;10443181;28;20032;-77
2021/04/04 20:36:18;;;;;;;35.40;16.83;;;;;;;0.02;100.00;94570.59;10441415;28;20424;-77
2021/04/04 20:41:19;;;;;;;34.63;15.98;;;;;;;0.02;100.00;94572.44;10441568;28;20135;-77
2021/04/04 20:46:20;;;;;;;33.28;16.60;;;;;;;0.06;100.00;94563.84;10442073;28;20021;-77
2021/04/04 20:51:21;;;;;;;36.60;14.55;;;;;;;0.15;100.00;94575.81;10442733;28;20032;-77
2021/04/04 20:56:21;;;;;;;34.53;14.23;;;;;;;0.16;100.00;94574.75;10441419;28;20025;-77
2021/04/04 21:01:22;;;;;;;35.37;16.50;;;;;;;0.10;100.00;94577.47;10442356;28;20728;-77
2021/04/04 21:06:22;;;;;;;35.08;17.10;;;;;;;0.09;100.00;94573.19;10441611;28;20287;-77
2021/04/04 21:11:22;;;;;;;38.65;18.17;;;;;;;0.04;100.00;94568.53;10449118;28;20396;-77
2021/04/04 21:16:23;;;;;;;39.83;17.80;;;;;;;0.05;100.00;94567.50;10450896;28;20025;-77
2021/04/04 21:21:23;;;;;;;37.13;16.83;;;;;;;0.08;100.00;94577.66;10450423;28;20028;-77
2021/04/04 21:26:23;;;;;;;41.47;18.30;;;;;;;0.16;100.00;94574.75;10484237;28;20263;-77
2021/04/04 21:31:24;;;;;;;42.53;19.27;;;;;;;0.18;100.00;94566.63;10490412;28;20270;-77
2021/04/04 21:36:24;;;;;;;41.05;19.70;;;;;;;0.12;100.00;94572.75;10491667;28;20025;-77
2021/04/04 21:41:25;;;;;;;51.85;23.55;;;;;;;0.19;100.00;94567.44;10491225;28;20063;-77
2021/04/04 21:46:25;;;;;;;52.80;21.43;;;;;;;0.31;100.00;94581.63;10491813;28;20021;-77
2021/04/04 21:51:25;;;;;;;52.33;21.23;;;;;;;0.34;100.00;94581.97;10491362;28;20036;-77
2021/04/04 21:56:27;;;;;;;52.80;21.90;;;;;;;0.38;100.00;94578.91;10490498;28;20294;-77
2021/04/04 22:01:28;;;;;;;49.53;21.77;;;;;;;0.40;100.00;94584.81;10489754;28;20078;-77
2021/04/04 22:06:29;;;;;;;52.25;22.77;;;;;;;0.61;100.00;94588.94;10490743;28;20128;-77
2021/04/04 22:11:29;;;;;;;50.63;22.08;;;;;;;0.83;100.00;94576.94;10490003;28;20031;-77
2021/04/04 22:16:39;;;;;;;45.73;21.67;;;;;;;0.78;100.00;94576.81;10490528;28;20039;-77
2021/04/04 22:21:51;;;;;;;48.83;20.30;;;;;;;0.85;100.00;94572.28;10489911;28;20032;-77
2021/04/04 22:26:51;;;;;;;49.50;20.38;;;;;;;0.93;100.00;94575.66;10489839;28;20032;-77
2021/04/04 22:31:52;;;;;;;39.57;20.60;;;;;;;1.03;100.00;94575.97;10489750;28;20048;-77
2021/04/04 22:36:54;;;;;;;46.17;21.70;;;;;;;1.07;100.00;94569.22;10489578;28;20125;-77
2021/04/04 22:41:54;;;;;;;39.80;18.50;;;;;;;1.13;100.00;94564.88;10489328;28;20407;-77
2021/04/04 22:46:54;;;;;;;41.13;19.30;;;;;;;1.06;100.00;94567.63;10489226;28;20093;-77
2021/04/04 22:51:58;;;;;;;42.67;21.88;;;;;;;0.89;100.00;94563.91;10489266;28;20316;-77
2021/04/04 22:57:00;;;;;;;43.00;21.23;;;;;;;0.81;100.00;94549.91;10488350;28;20028;-77
2021/04/04 23:02:02;;;;;;;43.67;20.45;;;;;;;0.79;100.00;94551.94;10488882;28;20559;-77
2021/04/04 23:07:04;;;;;;;47.60;23.05;;;;;;;0.64;100.00;94548.81;10488398;28;20048;-76